sensor_id;sensor_type;location;lat;lon;timestamp;temperature;humidity
7248;DHT22;3665;51.034;13.642;2024-03-06T00:04:04;0.40;99.90
7248;DHT22;3665;51.034;13.642;2024-03-06T00:09:00;0.50;99.90
7248;DHT22;3665;51.034;13.642;2024-03-06T00:13:46;0.50;99.90
7248;DHT22;3665;51.034;13.642;2024-03-06T00:18:35;0.60;99.90
7248;DHT22;3665;51.034;13.642;2024-03-06T00:23:23;0.70;99.90
7248;DHT22;3665;51.034;13.642;2024-03-06T00:28:12;0.80;99.90
7248;DHT22;3665;51.034;13.642;2024-03-06T00:32:59;1.00;99.90
7248;DHT22;3665;51.034;13.642;2024-03-06T00:37:43;1.20;99.90
7248;DHT22;3665;51.034;13.642;2024-03-06T00:42:28;1.50;99.90
7248;DHT22;3665;51.034;13.642;2024-03-06T00:47:18;1.50;99.90
7248;DHT22;3665;51.034;13.642;2024-03-06T00:52:10;1.70;99.90
7248;DHT22;3665;51.034;13.642;2024-03-06T00:56:59;1.90;99.90
7248;DHT22;3665;51.034;13.642;2024-03-06T01:01:45;1.80;99.90
7248;DHT22;3665;51.034;13.642;2024-03-06T01:06:30;1.70;99.90
7248;DHT22;3665;51.034;13.642;2024-03-06T01:11:25;1.60;99.90
7248;DHT22;3665;51.034;13.642;2024-03-06T01:16:11;1.50;99.90
7248;DHT22;3665;51.034;13.642;2024-03-06T01:20:55;1.50;99.90
7248;DHT22;3665;51.034;13.642;2024-03-06T01:25:39;1.20;99.90
7248;DHT22;3665;51.034;13.642;2024-03-06T01:30:36;1.10;99.90
7248;DHT22;3665;51.034;13.642;2024-03-06T01:35:19;1.00;99.90
7248;DHT22;3665;51.034;13.642;2024-03-06T01:40:06;0.80;99.90
7248;DHT22;3665;51.034;13.642;2024-03-06T01:44:51;0.50;99.90
7248;DHT22;3665;51.034;13.642;2024-03-06T01:49:40;0.50;99.90
7248;DHT22;3665;51.034;13.642;2024-03-06T01:54:28;0.40;99.90
7248;DHT22;3665;51.034;13.642;2024-03-06T01:59:20;0.20;99.90
7248;DHT22;3665;51.034;13.642;2024-03-06T02:04:20;0.20;99.90
7248;DHT22;3665;51.034;13.642;2024-03-06T02:09:15;0.10;99.90
7248;DHT22;3665;51.034;13.642;2024-03-06T02:14:02;0.00;99.90
7248;DHT22;3665;51.034;13.642;2024-03-06T02:18:51;-0.10;99.90
7248;DHT22;3665;51.034;13.642;2024-03-06T02:23:39;-0.20;99.90
7248;DHT22;3665;51.034;13.642;2024-03-06T02:28:28;-0.30;99.90
7248;DHT22;3665;51.034;13.642;2024-03-06T02:33:14;-0.30;99.90
7248;DHT22;3665;51.034;13.642;2024-03-06T02:38:04;-0.40;99.90
7248;DHT22;3665;51.034;13.642;2024-03-06T02:42:50;-0.30;99.90
7248;DHT22;3665;51.034;13.642;2024-03-06T02:47:40;-0.40;99.90
7248;DHT22;3665;51.034;13.642;2024-03-06T02:52:27;-0.50;99.90
7248;DHT22;3665;51.034;13.642;2024-03-06T02:57:16;-0.60;99.90
7248;DHT22;3665;51.034;13.642;2024-03-06T03:02:01;-0.60;99.90
7248;DHT22;3665;51.034;13.642;2024-03-06T03:06:45;-0.60;99.90
7248;DHT22;3665;51.034;13.642;2024-03-06T03:11:32;-0.50;99.90
7248;DHT22;3665;51.034;13.642;2024-03-06T03:16:25;-0.60;99.90
7248;DHT22;3665;51.034;13.642;2024-03-06T03:21:18;-0.40;99.90
7248;DHT22;3665;51.034;13.642;2024-03-06T03:26:01;-0.30;99.90
7248;DHT22;3665;51.034;13.642;2024-03-06T03:30:47;0.00;99.90
7248;DHT22;3665;51.034;13.642;2024-03-06T03:35:32;0.00;99.90
7248;DHT22;3665;51.034;13.642;2024-03-06T03:40:29;-0.10;99.90
7248;DHT22;3665;51.034;13.642;2024-03-06T03:45:15;0.00;99.90
7248;DHT22;3665;51.034;13.642;2024-03-06T03:49:58;-0.20;99.90
7248;DHT22;3665;51.034;13.642;2024-03-06T03:54:52;-0.40;99.90
7248;DHT22;3665;51.034;13.642;2024-03-06T03:59:38;-0.40;99.90
7248;DHT22;3665;51.034;13.642;2024-03-06T04:04:23;-0.60;99.90
7248;DHT22;3665;51.034;13.642;2024-03-06T04:09:08;-0.60;99.90
7248;DHT22;3665;51.034;13.642;2024-03-06T04:13:56;-0.60;99.90
7248;DHT22;3665;51.034;13.642;2024-03-06T04:18:51;-0.50;99.90
7248;DHT22;3665;51.034;13.642;2024-03-06T04:23:40;-0.40;99.90
7248;DHT22;3665;51.034;13.642;2024-03-06T04:28:26;-0.20;99.90
7248;DHT22;3665;51.034;13.642;2024-03-06T04:33:09;0.00;99.90
7248;DHT22;3665;51.034;13.642;2024-03-06T04:38:07;0.10;99.90
7248;DHT22;3665;51.034;13.642;2024-03-06T04:42:51;0.20;99.90
7248;DHT22;3665;51.034;13.642;2024-03-06T04:47:36;0.40;99.90
7248;DHT22;3665;51.034;13.642;2024-03-06T04:52:20;0.50;99.90
7248;DHT22;3665;51.034;13.642;2024-03-06T04:57:15;0.50;99.90
7248;DHT22;3665;51.034;13.642;2024-03-06T05:02:03;0.50;99.90
7248;DHT22;3665;51.034;13.642;2024-03-06T05:06:53;0.50;99.90
7248;DHT22;3665;51.034;13.642;2024-03-06T05:11:55;0.50;99.90
7248;DHT22;3665;51.034;13.642;2024-03-06T05:16:58;0.40;99.90
7248;DHT22;3665;51.034;13.642;2024-03-06T05:22:01;0.30;99.90
7248;DHT22;3665;51.034;13.642;2024-03-06T05:27:02;0.20;99.90
7248;DHT22;3665;51.034;13.642;2024-03-06T05:32:11;0.00;99.90
7248;DHT22;3665;51.034;13.642;2024-03-06T05:37:14;-0.20;99.90
7248;DHT22;3665;51.034;13.642;2024-03-06T05:42:14;-0.10;99.90
7248;DHT22;3665;51.034;13.642;2024-03-06T05:47:18;-0.30;99.90
7248;DHT22;3665;51.034;13.642;2024-03-06T05:52:22;-0.20;99.90
7248;DHT22;3665;51.034;13.642;2024-03-06T05:57:28;-0.20;99.90
7248;DHT22;3665;51.034;13.642;2024-03-06T06:02:33;-0.30;99.90
7248;DHT22;3665;51.034;13.642;2024-03-06T06:07:23;-0.30;99.90
7248;DHT22;3665;51.034;13.642;2024-03-06T06:12:10;-0.30;99.90
7248;DHT22;3665;51.034;13.642;2024-03-06T06:16:58;-0.10;99.90
7248;DHT22;3665;51.034;13.642;2024-03-06T06:21:51;-0.10;99.90
7248;DHT22;3665;51.034;13.642;2024-03-06T06:26:35;0.10;99.90
7248;DHT22;3665;51.034;13.642;2024-03-06T06:31:27;-0.10;99.90
7248;DHT22;3665;51.034;13.642;2024-03-06T06:36:11;0.10;99.90
7248;DHT22;3665;51.034;13.642;2024-03-06T06:40:59;0.30;99.90
7248;DHT22;3665;51.034;13.642;2024-03-06T06:45:46;0.50;99.90
7248;DHT22;3665;51.034;13.642;2024-03-06T06:50:32;0.70;99.90
7248;DHT22;3665;51.034;13.642;2024-03-06T06:55:19;0.80;99.90
7248;DHT22;3665;51.034;13.642;2024-03-06T07:00:12;0.90;99.90
7248;DHT22;3665;51.034;13.642;2024-03-06T07:04:56;1.10;99.90
7248;DHT22;3665;51.034;13.642;2024-03-06T07:09:43;1.20;99.90
7248;DHT22;3665;51.034;13.642;2024-03-06T07:14:36;1.40;99.90
7248;DHT22;3665;51.034;13.642;2024-03-06T07:19:24;1.60;99.90
7248;DHT22;3665;51.034;13.642;2024-03-06T07:24:10;1.70;99.90
7248;DHT22;3665;51.034;13.642;2024-03-06T07:28:59;1.90;99.90
7248;DHT22;3665;51.034;13.642;2024-03-06T07:33:43;1.90;99.90
7248;DHT22;3665;51.034;13.642;2024-03-06T07:38:53;2.20;99.90
7248;DHT22;3665;51.034;13.642;2024-03-06T07:43:40;2.50;99.90
7248;DHT22;3665;51.034;13.642;2024-03-06T07:48:26;2.80;99.90
7248;DHT22;3665;51.034;13.642;2024-03-06T07:53:16;3.00;99.90
7248;DHT22;3665;51.034;13.642;2024-03-06T07:58:02;3.30;99.90
7248;DHT22;3665;51.034;13.642;2024-03-06T08:02:47;3.50;99.90
7248;DHT22;3665;51.034;13.642;2024-03-06T08:07:40;3.90;99.90
7248;DHT22;3665;51.034;13.642;2024-03-06T08:12:26;4.10;99.90
7248;DHT22;3665;51.034;13.642;2024-03-06T08:17:16;4.40;99.90
7248;DHT22;3665;51.034;13.642;2024-03-06T08:22:00;4.70;1.00
7248;DHT22;3665;51.034;13.642;2024-03-06T08:26:51;4.80;1.00
7248;DHT22;3665;51.034;13.642;2024-03-06T08:31:40;5.10;1.00
7248;DHT22;3665;51.034;13.642;2024-03-06T08:36:28;5.40;16.90
7248;DHT22;3665;51.034;13.642;2024-03-06T08:41:17;5.70;99.90
7248;DHT22;3665;51.034;13.642;2024-03-06T08:46:02;5.90;99.90
7248;DHT22;3665;51.034;13.642;2024-03-06T08:50:51;6.10;93.90
7248;DHT22;3665;51.034;13.642;2024-03-06T08:55:38;6.30;46.40
7248;DHT22;3665;51.034;13.642;2024-03-06T09:00:27;6.50;24.90
7248;DHT22;3665;51.034;13.642;2024-03-06T09:05:17;6.80;19.40
7248;DHT22;3665;51.034;13.642;2024-03-06T09:10:04;6.90;6.50
7248;DHT22;3665;51.034;13.642;2024-03-06T09:14:50;7.20;1.00
7248;DHT22;3665;51.034;13.642;2024-03-06T09:19:34;7.30;1.00
7248;DHT22;3665;51.034;13.642;2024-03-06T09:24:43;7.60;1.00
7248;DHT22;3665;51.034;13.642;2024-03-06T09:29:33;7.70;1.00
7248;DHT22;3665;51.034;13.642;2024-03-06T09:34:18;8.00;1.00
7248;DHT22;3665;51.034;13.642;2024-03-06T09:39:05;8.10;1.00
7248;DHT22;3665;51.034;13.642;2024-03-06T09:43:56;8.20;1.00
7248;DHT22;3665;51.034;13.642;2024-03-06T09:48:46;8.50;1.00
7248;DHT22;3665;51.034;13.642;2024-03-06T09:53:32;8.80;1.00
7248;DHT22;3665;51.034;13.642;2024-03-06T09:58:20;9.00;1.00
7248;DHT22;3665;51.034;13.642;2024-03-06T10:03:09;9.10;1.00
7248;DHT22;3665;51.034;13.642;2024-03-06T10:07:54;9.20;1.00
7248;DHT22;3665;51.034;13.642;2024-03-06T10:12:46;9.00;1.00
7248;DHT22;3665;51.034;13.642;2024-03-06T10:17:31;9.10;1.00
7248;DHT22;3665;51.034;13.642;2024-03-06T10:22:20;9.10;1.00
7248;DHT22;3665;51.034;13.642;2024-03-06T10:27:06;9.10;1.00
7248;DHT22;3665;51.034;13.642;2024-03-06T10:31:55;8.90;1.00
7248;DHT22;3665;51.034;13.642;2024-03-06T10:36:45;8.70;1.00
7248;DHT22;3665;51.034;13.642;2024-03-06T10:41:30;8.70;1.00
7248;DHT22;3665;51.034;13.642;2024-03-06T10:46:20;8.90;1.00
7248;DHT22;3665;51.034;13.642;2024-03-06T10:51:07;9.00;1.00
7248;DHT22;3665;51.034;13.642;2024-03-06T10:55:55;9.00;1.00
7248;DHT22;3665;51.034;13.642;2024-03-06T11:00:44;9.30;1.00
7248;DHT22;3665;51.034;13.642;2024-03-06T11:05:32;9.30;1.00
7248;DHT22;3665;51.034;13.642;2024-03-06T11:10:35;9.50;1.00
7248;DHT22;3665;51.034;13.642;2024-03-06T11:15:22;9.60;1.00
7248;DHT22;3665;51.034;13.642;2024-03-06T11:20:13;9.80;1.00
7248;DHT22;3665;51.034;13.642;2024-03-06T11:25:00;9.90;1.00
7248;DHT22;3665;51.034;13.642;2024-03-06T11:30:06;9.90;1.00
7248;DHT22;3665;51.034;13.642;2024-03-06T11:34:53;10.30;1.00
7248;DHT22;3665;51.034;13.642;2024-03-06T11:39:39;10.20;1.00
7248;DHT22;3665;51.034;13.642;2024-03-06T11:44:27;9.80;1.00
7248;DHT22;3665;51.034;13.642;2024-03-06T11:49:17;9.80;1.00
7248;DHT22;3665;51.034;13.642;2024-03-06T11:54:05;9.60;1.00
7248;DHT22;3665;51.034;13.642;2024-03-06T11:58:52;9.20;1.00
7248;DHT22;3665;51.034;13.642;2024-03-06T12:03:41;9.40;1.00
7248;DHT22;3665;51.034;13.642;2024-03-06T12:08:27;9.40;1.00
7248;DHT22;3665;51.034;13.642;2024-03-06T12:13:16;9.10;1.00
7248;DHT22;3665;51.034;13.642;2024-03-06T12:18:03;9.60;1.00
7248;DHT22;3665;51.034;13.642;2024-03-06T12:22:51;10.20;1.00
7248;DHT22;3665;51.034;13.642;2024-03-06T12:27:40;10.10;1.00
7248;DHT22;3665;51.034;13.642;2024-03-06T12:32:24;10.20;1.00
7248;DHT22;3665;51.034;13.642;2024-03-06T12:37:15;10.00;1.00
7248;DHT22;3665;51.034;13.642;2024-03-06T12:42:02;10.10;1.00
7248;DHT22;3665;51.034;13.642;2024-03-06T12:46:55;9.70;1.00
7248;DHT22;3665;51.034;13.642;2024-03-06T12:51:38;9.50;1.00
7248;DHT22;3665;51.034;13.642;2024-03-06T12:56:28;8.90;1.00
7248;DHT22;3665;51.034;13.642;2024-03-06T13:01:14;8.70;1.00
7248;DHT22;3665;51.034;13.642;2024-03-06T13:06:07;9.20;1.00
7248;DHT22;3665;51.034;13.642;2024-03-06T13:10:51;9.70;1.00
7248;DHT22;3665;51.034;13.642;2024-03-06T13:15:40;9.50;1.00
7248;DHT22;3665;51.034;13.642;2024-03-06T13:20:26;8.70;1.00
7248;DHT22;3665;51.034;13.642;2024-03-06T13:25:30;8.20;1.00
7248;DHT22;3665;51.034;13.642;2024-03-06T13:30:20;8.10;1.00
7248;DHT22;3665;51.034;13.642;2024-03-06T13:35:06;8.00;1.00
7248;DHT22;3665;51.034;13.642;2024-03-06T13:39:54;7.90;1.00
7248;DHT22;3665;51.034;13.642;2024-03-06T13:44:59;8.00;1.00
7248;DHT22;3665;51.034;13.642;2024-03-06T13:49:46;8.20;1.00
7248;DHT22;3665;51.034;13.642;2024-03-06T13:54:37;8.40;1.00
7248;DHT22;3665;51.034;13.642;2024-03-06T13:59:23;8.40;1.00
7248;DHT22;3665;51.034;13.642;2024-03-06T14:04:10;8.00;1.00
7248;DHT22;3665;51.034;13.642;2024-03-06T14:09:00;7.90;1.00
7248;DHT22;3665;51.034;13.642;2024-03-06T14:13:45;7.80;1.00
7248;DHT22;3665;51.034;13.642;2024-03-06T14:18:36;7.60;1.00
7248;DHT22;3665;51.034;13.642;2024-03-06T14:23:25;7.40;1.00
7248;DHT22;3665;51.034;13.642;2024-03-06T14:28:11;7.60;1.00
7248;DHT22;3665;51.034;13.642;2024-03-06T14:33:00;8.20;1.00
7248;DHT22;3665;51.034;13.642;2024-03-06T14:37:44;8.00;1.00
7248;DHT22;3665;51.034;13.642;2024-03-06T14:42:35;7.60;1.00
7248;DHT22;3665;51.034;13.642;2024-03-06T14:47:20;7.50;1.00
7248;DHT22;3665;51.034;13.642;2024-03-06T14:52:05;7.50;1.00
7248;DHT22;3665;51.034;13.642;2024-03-06T14:56:52;7.90;1.00
7248;DHT22;3665;51.034;13.642;2024-03-06T15:01:51;8.20;1.00
7248;DHT22;3665;51.034;13.642;2024-03-06T15:06:34;8.30;1.00
7248;DHT22;3665;51.034;13.642;2024-03-06T15:11:19;7.80;1.00
7248;DHT22;3665;51.034;13.642;2024-03-06T15:16:09;7.30;1.00
7248;DHT22;3665;51.034;13.642;2024-03-06T15:21:02;7.10;1.00
7248;DHT22;3665;51.034;13.642;2024-03-06T15:25:48;7.00;1.00
7248;DHT22;3665;51.034;13.642;2024-03-06T15:30:32;6.90;1.00
7248;DHT22;3665;51.034;13.642;2024-03-06T15:35:22;6.80;1.00
7248;DHT22;3665;51.034;13.642;2024-03-06T15:40:11;6.60;1.00
7248;DHT22;3665;51.034;13.642;2024-03-06T15:44:55;6.50;1.00
7248;DHT22;3665;51.034;13.642;2024-03-06T15:49:40;6.20;1.00
7248;DHT22;3665;51.034;13.642;2024-03-06T15:54:34;5.80;1.00
7248;DHT22;3665;51.034;13.642;2024-03-06T15:59:21;5.60;1.00
7248;DHT22;3665;51.034;13.642;2024-03-06T16:04:08;5.60;1.00
7248;DHT22;3665;51.034;13.642;2024-03-06T16:09:01;5.50;1.00
7248;DHT22;3665;51.034;13.642;2024-03-06T16:13:49;5.20;1.00
7248;DHT22;3665;51.034;13.642;2024-03-06T16:18:55;5.00;1.00
7248;DHT22;3665;51.034;13.642;2024-03-06T16:23:38;4.80;1.00
7248;DHT22;3665;51.034;13.642;2024-03-06T16:28:27;4.80;1.00
7248;DHT22;3665;51.034;13.642;2024-03-06T16:33:16;4.90;1.00
7248;DHT22;3665;51.034;13.642;2024-03-06T16:38:03;4.90;1.00
7248;DHT22;3665;51.034;13.642;2024-03-06T16:42:50;4.80;1.00
7248;DHT22;3665;51.034;13.642;2024-03-06T16:47:38;4.60;1.00
7248;DHT22;3665;51.034;13.642;2024-03-06T16:57:55;4.10;1.00
7248;DHT22;3665;51.034;13.642;2024-03-06T17:02:52;4.10;1.00
7248;DHT22;3665;51.034;13.642;2024-03-06T17:07:41;4.10;1.00
7248;DHT22;3665;51.034;13.642;2024-03-06T17:12:26;4.20;1.00
7248;DHT22;3665;51.034;13.642;2024-03-06T17:17:15;4.30;1.00
7248;DHT22;3665;51.034;13.642;2024-03-06T17:22:00;4.30;1.00
7248;DHT22;3665;51.034;13.642;2024-03-06T17:26:47;4.30;1.00
7248;DHT22;3665;51.034;13.642;2024-03-06T17:31:32;4.50;1.00
7248;DHT22;3665;51.034;13.642;2024-03-06T17:36:30;4.50;1.00
7248;DHT22;3665;51.034;13.642;2024-03-06T17:41:31;4.50;1.00
7248;DHT22;3665;51.034;13.642;2024-03-06T17:46:20;4.70;1.00
7248;DHT22;3665;51.034;13.642;2024-03-06T17:51:10;4.60;1.00
7248;DHT22;3665;51.034;13.642;2024-03-06T17:55:55;4.60;1.00
7248;DHT22;3665;51.034;13.642;2024-03-06T18:00:44;4.50;1.00
7248;DHT22;3665;51.034;13.642;2024-03-06T18:05:33;4.50;1.00
7248;DHT22;3665;51.034;13.642;2024-03-06T18:10:22;4.40;1.00
7248;DHT22;3665;51.034;13.642;2024-03-06T18:15:08;4.50;1.00
7248;DHT22;3665;51.034;13.642;2024-03-06T18:19:54;4.40;1.00
7248;DHT22;3665;51.034;13.642;2024-03-06T18:24:44;4.40;1.00
7248;DHT22;3665;51.034;13.642;2024-03-06T18:29:30;4.30;1.00
7248;DHT22;3665;51.034;13.642;2024-03-06T18:34:18;4.10;1.00
7248;DHT22;3665;51.034;13.642;2024-03-06T18:39:02;4.00;1.00
7248;DHT22;3665;51.034;13.642;2024-03-06T18:43:50;3.70;1.00
7248;DHT22;3665;51.034;13.642;2024-03-06T18:48:43;3.50;1.00
7248;DHT22;3665;51.034;13.642;2024-03-06T18:53:31;3.40;1.00
7248;DHT22;3665;51.034;13.642;2024-03-06T18:58:23;3.20;1.00
7248;DHT22;3665;51.034;13.642;2024-03-06T19:03:23;2.90;1.00
7248;DHT22;3665;51.034;13.642;2024-03-06T19:08:10;2.60;1.00
7248;DHT22;3665;51.034;13.642;2024-03-06T19:13:02;2.20;1.00
7248;DHT22;3665;51.034;13.642;2024-03-06T19:17:47;1.90;1.00
7248;DHT22;3665;51.034;13.642;2024-03-06T19:22:33;1.60;1.00
7248;DHT22;3665;51.034;13.642;2024-03-06T19:27:19;1.50;1.00
7248;DHT22;3665;51.034;13.642;2024-03-06T19:32:11;1.30;5.00
7248;DHT22;3665;51.034;13.642;2024-03-06T19:37:00;1.10;5.80
7248;DHT22;3665;51.034;13.642;2024-03-06T19:41:47;0.90;38.70
7248;DHT22;3665;51.034;13.642;2024-03-06T19:46:37;0.80;91.90
7248;DHT22;3665;51.034;13.642;2024-03-06T19:51:23;0.90;84.60
7248;DHT22;3665;51.034;13.642;2024-03-06T19:56:13;1.00;94.20
7248;DHT22;3665;51.034;13.642;2024-03-06T20:00:58;1.00;53.40
7248;DHT22;3665;51.034;13.642;2024-03-06T20:05:48;1.20;63.40
7248;DHT22;3665;51.034;13.642;2024-03-06T20:10:36;1.40;71.00
7248;DHT22;3665;51.034;13.642;2024-03-06T20:15:26;1.40;74.00
7248;DHT22;3665;51.034;13.642;2024-03-06T20:20:12;1.50;51.60
7248;DHT22;3665;51.034;13.642;2024-03-06T20:24:58;1.40;54.50
7248;DHT22;3665;51.034;13.642;2024-03-06T20:29:50;1.30;69.10
7248;DHT22;3665;51.034;13.642;2024-03-06T20:34:36;1.30;99.90
7248;DHT22;3665;51.034;13.642;2024-03-06T20:39:25;1.30;99.90
7248;DHT22;3665;51.034;13.642;2024-03-06T20:44:11;1.30;99.90
7248;DHT22;3665;51.034;13.642;2024-03-06T20:48:59;1.40;99.90
7248;DHT22;3665;51.034;13.642;2024-03-06T20:53:49;1.50;99.90
7248;DHT22;3665;51.034;13.642;2024-03-06T20:58:35;1.70;99.90
7248;DHT22;3665;51.034;13.642;2024-03-06T21:03:22;2.00;72.80
7248;DHT22;3665;51.034;13.642;2024-03-06T21:08:30;2.20;43.70
7248;DHT22;3665;51.034;13.642;2024-03-06T21:13:14;2.40;29.80
7248;DHT22;3665;51.034;13.642;2024-03-06T21:18:05;2.50;13.30
7248;DHT22;3665;51.034;13.642;2024-03-06T21:22:52;2.70;1.00
7248;DHT22;3665;51.034;13.642;2024-03-06T21:27:40;2.80;1.00
7248;DHT22;3665;51.034;13.642;2024-03-06T21:32:25;2.80;1.00
7248;DHT22;3665;51.034;13.642;2024-03-06T21:37:11;3.00;1.00
7248;DHT22;3665;51.034;13.642;2024-03-06T21:42:00;2.90;1.00
7248;DHT22;3665;51.034;13.642;2024-03-06T21:46:51;3.00;1.00
7248;DHT22;3665;51.034;13.642;2024-03-06T21:51:40;3.10;1.00
7248;DHT22;3665;51.034;13.642;2024-03-06T21:56:25;3.10;1.00
7248;DHT22;3665;51.034;13.642;2024-03-06T22:01:12;3.10;1.00
7248;DHT22;3665;51.034;13.642;2024-03-06T22:06:03;3.20;1.00
7248;DHT22;3665;51.034;13.642;2024-03-06T22:10:48;3.20;1.00
7248;DHT22;3665;51.034;13.642;2024-03-06T22:15:32;3.20;1.00
7248;DHT22;3665;51.034;13.642;2024-03-06T22:20:20;3.20;1.00
7248;DHT22;3665;51.034;13.642;2024-03-06T22:25:15;3.30;1.00
7248;DHT22;3665;51.034;13.642;2024-03-06T22:30:05;3.30;1.00
7248;DHT22;3665;51.034;13.642;2024-03-06T22:34:51;3.30;1.00
7248;DHT22;3665;51.034;13.642;2024-03-06T22:39:34;3.40;1.00
7248;DHT22;3665;51.034;13.642;2024-03-06T22:44:29;3.40;1.00
7248;DHT22;3665;51.034;13.642;2024-03-06T22:49:15;3.40;1.00
7248;DHT22;3665;51.034;13.642;2024-03-06T22:54:03;3.50;1.00
7248;DHT22;3665;51.034;13.642;2024-03-06T22:58:53;3.60;1.00
7248;DHT22;3665;51.034;13.642;2024-03-06T23:03:38;3.40;1.00
7248;DHT22;3665;51.034;13.642;2024-03-06T23:08:21;3.50;1.00
7248;DHT22;3665;51.034;13.642;2024-03-06T23:13:06;3.60;1.00
7248;DHT22;3665;51.034;13.642;2024-03-06T23:17:54;3.60;1.00
7248;DHT22;3665;51.034;13.642;2024-03-06T23:22:42;3.60;15.40
7248;DHT22;3665;51.034;13.642;2024-03-06T23:27:32;3.60;12.70
7248;DHT22;3665;51.034;13.642;2024-03-06T23:32:19;3.60;29.60
7248;DHT22;3665;51.034;13.642;2024-03-06T23:37:10;3.60;52.60
7248;DHT22;3665;51.034;13.642;2024-03-06T23:41:55;3.60;92.30
7248;DHT22;3665;51.034;13.642;2024-03-06T23:46:39;3.50;99.90
7248;DHT22;3665;51.034;13.642;2024-03-06T23:51:26;3.40;99.90
7248;DHT22;3665;51.034;13.642;2024-03-06T23:56:13;3.30;1.00
